Time;durP1;ratioP1;P1;durP2;ratioP2;P2;SDS_P1;SDS_P2;PMS_P1;PMS_P2;Temp;Humidity;BMP_temperature;BMP_pressure;BME280_temperature;BME280_humidity;BME280_pressure;Samples;Min_cycle;Max_cycle;Signal;HPM_P1;HPM_P2
2024/01/13 08:51:09;;;;;;;;;12.00;12.00;;;;;;;;5012568;27;13314;-71
2024/01/13 08:53:34;;;;;;;;;30.25;27.50;;;;;;;;5069524;28;8831;-73
2024/01/13 08:56:00;;;;;;;;;28.67;26.33;;;;;;;;5068251;28;8868;-74
2024/01/13 08:58:25;;;;;;;;;29.33;27.00;;;;;;;;5068488;28;9074;-72
2024/01/13 09:00:54;;;;;;;;;24.67;22.67;;;;;;;;5068127;28;8841;-74
2024/01/13 09:03:20;;;;;;;;;34.67;28.00;;;;;;;;5066491;28;8937;-74
2024/01/13 09:05:45;;;;;;;;;26.00;23.67;;;;;;;;5066616;28;8796;-74
2024/01/13 09:08:10;;;;;;;;;32.33;29.67;;;;;;;;5067493;28;8941;-74
2024/01/13 09:10:36;;;;;;;;;31.33;28.67;;;;;;;;5066632;28;8869;-73
2024/01/13 09:13:01;;;;;;;;;32.33;31.00;;;;;;;;5064381;28;8816;-77
2024/01/13 09:15:26;;;;;;;;;27.33;25.33;;;;;;;;5081073;28;8989;-77
2024/01/13 09:17:51;;;;;;;;;33.33;30.00;;;;;;;;5067041;23;8894;-73
2024/01/13 09:20:17;;;;;;;;;24.33;22.67;;;;;;;;5037075;28;8850;-73
2024/01/13 09:22:42;;;;;;;;;34.67;32.33;;;;;;;;5037501;28;8801;-73
2024/01/13 09:25:07;;;;;;;;;34.67;29.00;;;;;;;;5037547;28;8876;-72
2024/01/13 09:27:33;;;;;;;;;33.00;30.00;;;;;;;;5019846;28;8787;-73
2024/01/13 09:29:59;;;;;;;;;33.33;32.00;;;;;;;;5036994;28;8887;-73
2024/01/13 09:32:24;;;;;;;;;36.67;33.00;;;;;;;;5034483;28;8800;-73
2024/01/13 09:34:49;;;;;;;;;40.67;32.67;;;;;;;;5041000;28;8901;-74
2024/01/13 09:37:15;;;;;;;;;28.67;25.67;;;;;;;;5026693;28;8806;-74
2024/01/13 09:39:40;;;;;;;;;27.67;27.67;;;;;;;;5047840;28;8824;-75
2024/01/13 09:42:05;;;;;;;;;32.00;29.67;;;;;;;;5062178;28;8788;-74
2024/01/13 09:44:32;;;;;;;;;38.00;34.33;;;;;;;;5046951;28;8792;-79
2024/01/13 09:46:58;;;;;;;;;37.33;34.67;;;;;;;;5047254;28;8820;-75
2024/01/13 09:49:25;;;;;;;;;30.67;28.33;;;;;;;;5047068;28;8781;-76
2024/01/13 09:51:51;;;;;;;;;42.67;36.33;;;;;;;;5047493;28;8780;-73
2024/01/13 11:28:57;;;;;;;;;43.00;34.00;;;;;;;;5086424;28;13650;-79
2024/01/13 11:31:39;;;;;;;;;39.00;34.25;;;;;;;;5088072;28;11547;-83
2024/01/13 11:34:05;;;;;;;;;36.50;32.75;;;;;;;;5088239;28;8795;-79
2024/01/13 11:36:39;;;;;;;;;30.00;26.75;;;;;;;;5087801;28;11515;-76
2024/01/13 11:39:05;;;;;;;;;36.75;33.25;;;;;;;;5108200;28;11519;-78
2024/01/13 11:41:49;;;;;;;;;33.50;29.75;;;;;;;;5104724;28;11522;-80
2024/01/13 11:44:19;;;;;;;;;35.00;32.25;;;;;;;;5109369;28;11515;-80
2024/01/13 11:47:14;;;;;;;;;38.50;31.75;;;;;;;;5101327;28;11528;-79
2024/01/13 11:49:39;;;;;;;;;39.00;35.50;;;;;;;;5084598;28;11405;-79
2024/01/13 11:52:09;;;;;;;;;34.75;31.00;;;;;;;;5066122;28;12172;-77
2024/01/13 11:54:35;;;;;;;;;36.25;30.50;;;;;;;;5084310;28;8804;-77
2024/01/13 11:57:04;;;;;;;;;36.25;34.00;;;;;;;;5085316;28;11423;-80
2024/01/13 11:59:29;;;;;;;;;31.50;30.75;;;;;;;;5087532;28;9007;-86
2024/01/13 12:01:55;;;;;;;;;35.00;31.25;;;;;;;;5095701;28;11374;-77
2024/01/13 12:04:23;;;;;;;;;34.00;32.75;;;;;;;;5105479;28;8894;-75
2024/01/13 12:06:50;;;;;;;;;42.75;31.00;;;;;;;;5104835;28;11698;-76
2024/01/13 12:09:18;;;;;;;;;35.50;31.75;;;;;;;;5105920;28;11466;-76
2024/01/13 12:11:51;;;;;;;;;33.75;31.25;;;;;;;;5092012;28;11475;-74
2024/01/13 12:14:16;;;;;;;;;25.50;25.50;;;;;;;;5084958;28;11495;-75
2024/01/13 12:16:41;;;;;;;;;32.75;29.00;;;;;;;;5091197;28;12189;-78
2024/01/13 12:19:07;;;;;;;;;27.75;26.00;;;;;;;;5084931;28;8920;-73
2024/01/13 12:21:35;;;;;;;;;27.00;25.25;;;;;;;;5092447;28;8845;-74
2024/01/13 12:24:00;;;;;;;;;31.75;29.75;;;;;;;;5104932;28;11393;-74
2024/01/13 12:26:29;;;;;;;;;23.25;22.75;;;;;;;;5105667;28;11535;-75
2024/01/13 12:28:54;;;;;;;;;27.00;23.00;;;;;;;;5108093;28;8832;-75
2024/01/13 12:31:20;;;;;;;;;28.00;26.75;;;;;;;;5103460;28;11547;-74
2024/01/13 12:33:46;;;;;;;;;27.25;26.50;;;;;;;;5107080;28;8820;-75
2024/01/13 12:36:11;;;;;;;;;25.50;23.50;;;;;;;;5104437;28;11503;-73
2024/01/13 12:38:37;;;;;;;;;27.00;23.75;;;;;;;;5088631;28;9681;-74
2024/01/13 12:41:04;;;;;;;;;20.50;20.00;;;;;;;;5077823;28;8798;-76
2024/01/13 12:43:29;;;;;;;;;21.50;19.00;;;;;;;;5070977;28;12670;-75
2024/01/13 12:45:58;;;;;;;;;23.50;20.00;;;;;;;;5070934;28;11634;-73
2024/01/13 12:48:25;;;;;;;;;28.75;23.00;;;;;;;;5070688;28;8911;-73
2024/01/13 12:50:51;;;;;;;;;25.75;22.75;;;;;;;;5072736;28;11488;-74
2024/01/13 12:53:24;;;;;;;;;24.50;22.00;;;;;;;;5091091;28;11572;-70
2024/01/13 12:55:49;;;;;;;;;26.00;23.00;;;;;;;;5090972;28;11551;-73
2024/01/13 12:58:14;;;;;;;;;29.75;27.75;;;;;;;;5077692;28;11518;-72
2024/01/13 13:00:39;;;;;;;;;28.00;26.75;;;;;;;;5083930;28;8818;-72
2024/01/13 13:03:05;;;;;;;;;31.00;25.00;;;;;;;;5083057;28;8803;-74
2024/01/13 13:05:30;;;;;;;;;35.75;31.75;;;;;;;;5082048;28;8803;-73
2024/01/13 13:07:55;;;;;;;;;30.75;27.25;;;;;;;;5076382;28;8830;-74
2024/01/13 13:10:20;;;;;;;;;43.00;37.00;;;;;;;;5071851;28;8771;-75
2024/01/13 13:12:46;;;;;;;;;35.25;31.50;;;;;;;;5084676;28;8807;-74
2024/01/13 13:15:12;;;;;;;;;55.33;44.33;;;;;;;;5081286;28;8854;-74
2024/01/13 13:17:37;;;;;;;;;78.33;61.00;;;;;;;;5080452;28;9886;-73
